createdAt,value
2019-03-23T00:00:44.620Z,9.30
2019-03-23T00:03:15.727Z,9.30
2019-03-23T00:05:46.068Z,9.40
2019-03-23T00:08:16.521Z,9.30
2019-03-23T00:10:47.199Z,9.30
2019-03-23T00:13:18.184Z,9.40
2019-03-23T00:15:48.630Z,9.30
2019-03-23T00:18:19.393Z,9.20
2019-03-23T00:20:50.152Z,9.20
2019-03-23T00:23:20.720Z,9.30
2019-03-23T00:25:51.251Z,9.30
2019-03-23T00:28:22.247Z,9.20
2019-03-23T00:30:53.416Z,9.20
2019-03-23T00:33:24.133Z,9.20
2019-03-23T00:35:54.587Z,9.20
2019-03-23T00:38:24.852Z,9.20
2019-03-23T00:40:55.803Z,9.10
2019-03-23T00:43:26.702Z,9.00
2019-03-23T00:45:57.189Z,9.00
2019-03-23T00:48:27.992Z,8.90
2019-03-23T00:50:58.460Z,8.80
2019-03-23T00:53:29.016Z,8.90
2019-03-23T00:55:59.697Z,8.90
2019-03-23T00:58:30.687Z,8.80
2019-03-23T01:01:01.495Z,8.80
2019-03-23T01:03:32.251Z,8.80
2019-03-23T01:06:02.664Z,8.90
2019-03-23T01:08:33.218Z,8.90
2019-03-23T01:11:03.749Z,9.00
2019-03-23T01:13:34.959Z,9.00
2019-03-23T01:16:05.599Z,9.00
2019-03-23T01:18:35.982Z,8.90
2019-03-23T01:21:06.758Z,9.00
2019-03-23T01:23:37.535Z,9.00
2019-03-23T01:26:08.119Z,9.00
2019-03-23T01:28:39.165Z,9.00
2019-03-23T01:31:09.906Z,9.00
2019-03-23T01:33:40.583Z,9.00
2019-03-23T01:36:11.068Z,9.00
2019-03-23T01:38:41.806Z,9.00
2019-03-23T01:41:12.872Z,8.90
2019-03-23T01:43:43.499Z,8.90
2019-03-23T01:46:13.935Z,8.90
2019-03-23T01:48:44.478Z,8.90
2019-03-23T01:51:14.995Z,8.90
2019-03-23T01:53:45.491Z,8.90
2019-03-23T01:56:16.108Z,8.80
2019-03-23T01:58:47.234Z,8.70
2019-03-23T02:01:17.575Z,8.60
2019-03-23T02:03:48.291Z,8.60
2019-03-23T02:06:19.063Z,8.60
2019-03-23T02:08:49.756Z,8.60
2019-03-23T02:11:20.531Z,8.60
2019-03-23T02:13:51.163Z,8.50
2019-03-23T02:16:22.065Z,8.50
2019-03-23T02:18:52.495Z,8.40
2019-03-23T02:21:22.825Z,8.30
2019-03-23T02:23:53.339Z,8.20
2019-03-23T02:26:24.516Z,8.10
2019-03-23T02:28:55.104Z,8.20
2019-03-23T02:31:25.486Z,8.20
2019-03-23T02:33:56.106Z,8.10
2019-03-23T02:36:26.376Z,8.10
2019-03-23T02:38:56.664Z,8.10
2019-03-23T02:41:27.445Z,8.20
2019-03-23T02:43:58.206Z,8.10
2019-03-23T02:46:28.597Z,8.10
2019-03-23T02:48:59.269Z,8.00
2019-03-23T02:51:29.960Z,8.10
2019-03-23T02:54:00.272Z,8.00
2019-03-23T02:56:30.605Z,8.00
2019-03-23T02:59:00.864Z,8.10
2019-03-23T03:01:31.199Z,8.10
2019-03-23T03:04:01.880Z,8.10
2019-03-23T03:06:32.852Z,8.00
2019-03-23T03:09:04.165Z,8.00
2019-03-23T03:11:34.811Z,8.00
2019-03-23T03:14:05.152Z,8.00
2019-03-23T03:16:36.376Z,8.00
2019-03-23T03:19:07.539Z,8.10
2019-03-23T03:21:37.819Z,8.10
2019-03-23T03:24:08.289Z,7.90
2019-03-23T03:26:39.425Z,8.00
2019-03-23T03:29:09.985Z,7.90
2019-03-23T03:31:40.595Z,7.90
2019-03-23T03:34:11.309Z,7.90
2019-03-23T03:36:41.968Z,8.00
2019-03-23T03:39:12.704Z,7.90
2019-03-23T03:41:43.766Z,7.80
2019-03-23T03:44:31.459Z,7.80
2019-03-23T03:47:02.154Z,7.60
2019-03-23T03:49:33.138Z,7.60
2019-03-23T03:52:03.527Z,7.80
2019-03-23T03:54:33.865Z,7.80
2019-03-23T03:57:04.631Z,7.80
2019-03-23T03:59:35.474Z,7.80
2019-03-23T04:02:06.687Z,7.80
2019-03-23T04:04:38.251Z,7.90
2019-03-23T04:07:09.079Z,7.80
2019-03-23T04:09:40.521Z,7.80
2019-03-23T04:12:11.755Z,7.70
2019-03-23T04:14:42.075Z,7.60
2019-03-23T04:17:13.052Z,7.50
2019-03-23T04:19:43.528Z,7.40
2019-03-23T04:22:13.932Z,7.40
2019-03-23T04:24:44.492Z,7.30
2019-03-23T04:27:16.497Z,7.30
2019-03-23T04:29:47.476Z,7.40
2019-03-23T04:32:17.954Z,7.50
2019-03-23T04:34:48.530Z,7.60
2019-03-23T04:37:19.284Z,7.60
2019-03-23T04:39:50.065Z,7.60
2019-03-23T04:42:20.623Z,7.60
2019-03-23T04:44:51.450Z,7.50
2019-03-23T04:47:22.608Z,7.50
2019-03-23T04:49:53.341Z,7.50
2019-03-23T04:52:24.372Z,7.40
2019-03-23T04:54:55.307Z,7.10
2019-03-23T04:57:31.212Z,7.10
2019-03-23T05:00:01.814Z,7.10
2019-03-23T05:02:32.293Z,7.00
2019-03-23T05:05:03.280Z,7.00
2019-03-23T05:07:34.990Z,7.10
2019-03-23T05:10:09.138Z,7.10
2019-03-23T05:12:39.805Z,6.90
2019-03-23T05:15:11.003Z,7.00
2019-03-23T05:17:41.573Z,6.90
2019-03-23T05:20:14.022Z,7.00
2019-03-23T05:22:44.638Z,6.90
2019-03-23T05:25:25.247Z,7.00
2019-03-23T05:27:56.150Z,7.10
2019-03-23T05:30:27.836Z,7.10
2019-03-23T05:32:58.812Z,7.00
2019-03-23T05:35:29.483Z,7.00
2019-03-23T05:38:00.139Z,7.00
2019-03-23T05:40:31.025Z,6.90
2019-03-23T05:43:01.781Z,7.00
2019-03-23T05:45:33.024Z,6.80
2019-03-23T05:48:03.583Z,6.60
2019-03-23T05:50:34.921Z,6.70
2019-03-23T05:53:05.328Z,6.80
2019-03-23T05:55:36.003Z,6.90
2019-03-23T05:58:06.682Z,7.00
2019-03-23T06:00:37.527Z,7.00
2019-03-23T06:03:08.156Z,7.10
2019-03-23T06:05:38.729Z,7.10
2019-03-23T06:08:09.135Z,7.10
2019-03-23T06:10:39.930Z,7.20
2019-03-23T06:13:10.714Z,7.20
2019-03-23T06:15:41.152Z,7.20
2019-03-23T06:18:12.385Z,7.10
2019-03-23T06:20:43.038Z,7.10
2019-03-23T06:23:13.467Z,7.20
2019-03-23T06:25:44.159Z,7.20
2019-03-23T06:28:14.927Z,7.10
2019-03-23T06:30:45.203Z,7.20
2019-03-23T06:33:15.726Z,7.30
2019-03-23T06:35:46.534Z,7.40
2019-03-23T06:38:16.876Z,7.40
2019-03-23T06:40:47.759Z,7.30
2019-03-23T06:43:18.851Z,7.20
2019-03-23T06:45:49.347Z,7.10
2019-03-23T06:48:19.936Z,7.10
2019-03-23T06:50:50.534Z,7.00
2019-03-23T06:53:21.297Z,7.00
2019-03-23T06:55:52.187Z,7.10
2019-03-23T06:58:22.711Z,7.10
2019-03-23T07:00:53.347Z,7.30
2019-03-23T07:03:24.186Z,7.40
2019-03-23T07:05:54.730Z,7.40
2019-03-23T07:08:31.842Z,7.50
2019-03-23T07:10:59.763Z,7.50
2019-03-23T07:13:31.334Z,7.40
2019-03-23T07:16:01.670Z,7.30
2019-03-23T07:18:32.273Z,7.40
2019-03-23T07:21:02.699Z,7.40
2019-03-23T07:23:32.940Z,7.50
2019-03-23T07:26:03.212Z,7.40
2019-03-23T07:28:33.719Z,7.50
2019-03-23T07:31:04.090Z,7.70
2019-03-23T07:33:34.968Z,7.70
2019-03-23T07:36:05.678Z,7.80
2019-03-23T07:38:36.197Z,7.70
2019-03-23T07:41:06.863Z,7.70
2019-03-23T07:43:37.546Z,7.70
2019-03-23T07:46:08.292Z,7.60
2019-03-23T07:48:39.053Z,7.80
2019-03-23T07:51:09.577Z,7.80
2019-03-23T07:53:40.354Z,7.90
2019-03-23T07:56:11.162Z,7.90
2019-03-23T07:58:41.847Z,8.10
2019-03-23T08:01:12.051Z,8.20
2019-03-23T08:03:42.448Z,8.30
2019-03-23T08:06:13.050Z,8.30
2019-03-23T08:08:43.577Z,8.20
2019-03-23T08:11:14.463Z,8.50
2019-03-23T08:13:45.144Z,8.60
2019-03-23T08:16:15.898Z,8.50
2019-03-23T08:18:48.324Z,8.30
2019-03-23T08:21:18.713Z,8.40
2019-03-23T08:23:49.126Z,8.40
2019-03-23T08:26:19.955Z,8.40
2019-03-23T08:28:50.411Z,8.50
2019-03-23T08:31:21.419Z,8.50
2019-03-23T08:33:52.328Z,8.80
2019-03-23T08:36:23.053Z,9.00
2019-03-23T08:38:53.867Z,9.10
2019-03-23T08:41:24.463Z,9.10
2019-03-23T08:43:55.102Z,9.20
2019-03-23T08:46:25.591Z,9.40
2019-03-23T08:48:56.442Z,9.50
2019-03-23T08:51:26.965Z,9.80
2019-03-23T08:53:57.944Z,9.50
2019-03-23T08:56:29.849Z,9.60
2019-03-23T08:59:00.726Z,9.60
2019-03-23T09:01:31.286Z,9.90
2019-03-23T09:04:05.595Z,10.00
2019-03-23T09:06:37.764Z,10.10
2019-03-23T09:09:08.710Z,10.00
2019-03-23T09:11:39.224Z,10.00
2019-03-23T09:14:17.470Z,9.80
2019-03-23T09:16:48.574Z,9.90
2019-03-23T09:19:26.148Z,10.10
2019-03-23T09:21:56.702Z,10.10
2019-03-23T09:24:27.271Z,9.80
2019-03-23T09:26:57.978Z,9.70
2019-03-23T09:29:28.615Z,10.10
2019-03-23T09:31:59.243Z,10.30
2019-03-23T09:34:30.399Z,10.50
2019-03-23T09:37:00.933Z,10.70
2019-03-23T09:39:31.591Z,10.90
2019-03-23T09:42:03.664Z,11.10
2019-03-23T09:44:39.587Z,10.80
2019-03-23T09:47:10.184Z,10.80
2019-03-23T09:49:40.484Z,10.60
2019-03-23T09:52:11.871Z,10.60
2019-03-23T09:54:43.220Z,10.60
2019-03-23T09:57:13.861Z,10.90
2019-03-23T09:59:44.688Z,11.00
2019-03-23T10:02:16.304Z,10.80
2019-03-23T10:04:46.943Z,10.90
2019-03-23T10:07:22.972Z,11.10
2019-03-23T10:09:53.266Z,10.50
2019-03-23T10:12:23.900Z,10.60
2019-03-23T10:14:54.784Z,10.80
2019-03-23T10:17:28.493Z,11.10
2019-03-23T10:19:59.384Z,11.40
2019-03-23T10:22:29.937Z,11.60
2019-03-23T10:25:00.888Z,11.60
2019-03-23T10:27:31.468Z,12.00
2019-03-23T10:30:06.102Z,12.30
2019-03-23T10:32:39.095Z,12.00
2019-03-23T10:35:10.000Z,11.80
2019-03-23T10:37:40.699Z,12.40
2019-03-23T10:40:11.652Z,12.70
2019-03-23T10:42:45.217Z,12.70
2019-03-23T10:45:16.194Z,12.60
2019-03-23T10:47:46.678Z,12.20
2019-03-23T10:50:17.852Z,12.30
2019-03-23T10:52:48.663Z,12.60
2019-03-23T10:55:19.314Z,13.00
2019-03-23T10:57:50.221Z,13.40
2019-03-23T11:00:20.903Z,13.40
2019-03-23T11:02:51.538Z,13.30
2019-03-23T11:05:22.645Z,13.10
2019-03-23T11:07:54.080Z,12.50
2019-03-23T11:10:24.760Z,12.80
2019-03-23T11:12:55.061Z,13.20
2019-03-23T11:15:26.065Z,13.10
2019-03-23T11:17:56.674Z,13.20
2019-03-23T11:20:27.768Z,13.00
2019-03-23T11:22:58.477Z,12.40
2019-03-23T11:25:28.983Z,12.50
2019-03-23T11:28:00.373Z,12.80
2019-03-23T11:30:30.876Z,12.90
2019-03-23T11:33:01.215Z,13.10
2019-03-23T11:35:31.678Z,12.40
2019-03-23T11:38:03.043Z,12.20
2019-03-23T11:40:33.550Z,12.50
2019-03-23T11:43:04.170Z,12.20
2019-03-23T11:45:35.002Z,12.50
2019-03-23T11:48:05.936Z,12.80
2019-03-23T11:50:37.098Z,12.60
2019-03-23T11:53:07.696Z,12.20
2019-03-23T11:55:38.782Z,12.20
2019-03-23T11:58:09.394Z,12.20
2019-03-23T12:00:39.818Z,12.50
2019-03-23T12:03:10.314Z,12.90
2019-03-23T12:05:41.201Z,13.30
2019-03-23T12:08:11.853Z,13.40
2019-03-23T12:10:42.315Z,13.60
2019-03-23T12:13:13.143Z,13.50
2019-03-23T12:15:43.634Z,13.20
2019-03-23T12:18:14.156Z,12.80
2019-03-23T12:20:44.602Z,12.50
2019-03-23T12:23:15.915Z,12.50
2019-03-23T12:25:46.391Z,12.30
2019-03-23T12:28:17.588Z,12.40
2019-03-23T12:31:10.241Z,12.40
2019-03-23T12:33:41.016Z,12.50
2019-03-23T12:36:11.421Z,12.60
2019-03-23T12:38:42.523Z,13.00
2019-03-23T12:41:22.755Z,12.80
2019-03-23T12:43:47.925Z,12.80
2019-03-23T12:46:18.583Z,12.60
2019-03-23T12:48:49.201Z,12.60
2019-03-23T12:51:19.958Z,12.50
2019-03-23T12:53:50.416Z,12.40
2019-03-23T12:56:20.835Z,12.50
2019-03-23T12:58:51.758Z,12.30
2019-03-23T13:01:22.270Z,12.30
2019-03-23T13:03:52.779Z,12.40
2019-03-23T13:06:23.505Z,12.70
2019-03-23T13:08:54.076Z,12.60
2019-03-23T13:11:34.767Z,12.70
2019-03-23T13:13:59.751Z,12.60
2019-03-23T13:16:30.476Z,12.70
2019-03-23T13:19:01.163Z,12.80
2019-03-23T13:21:32.076Z,12.70
2019-03-23T13:24:02.471Z,12.70
2019-03-23T13:26:33.263Z,12.70
2019-03-23T13:29:03.725Z,12.80
2019-03-23T13:31:35.501Z,12.70
2019-03-23T13:34:09.890Z,12.90
2019-03-23T13:36:40.835Z,13.00
2019-03-23T13:39:11.386Z,13.10
2019-03-23T13:41:51.578Z,13.20
2019-03-23T13:44:29.831Z,13.00
2019-03-23T13:47:00.765Z,12.60
2019-03-23T13:49:31.279Z,12.50
2019-03-23T13:52:02.016Z,12.50
2019-03-23T13:54:32.723Z,12.80
2019-03-23T13:57:16.092Z,12.90
2019-03-23T13:59:52.243Z,13.00
2019-03-23T14:02:23.288Z,13.10
2019-03-23T14:05:12.217Z,13.10
2019-03-23T14:07:44.495Z,13.10
2019-03-23T14:10:15.252Z,13.10
2019-03-23T14:12:45.591Z,13.20
2019-03-23T14:15:16.525Z,13.20
2019-03-23T14:17:47.067Z,13.20
2019-03-23T14:20:18.095Z,13.00
2019-03-23T14:22:51.035Z,13.00
2019-03-23T14:25:24.327Z,13.00
2019-03-23T14:27:55.755Z,13.00
2019-03-23T14:30:26.166Z,12.90
2019-03-23T14:33:01.126Z,12.90
2019-03-23T14:35:31.581Z,13.00
2019-03-23T14:38:02.038Z,13.00
2019-03-23T14:40:32.992Z,12.90
2019-03-23T14:43:20.069Z,12.90
2019-03-23T14:45:50.642Z,12.80
2019-03-23T14:48:21.463Z,12.90
2019-03-23T14:50:51.935Z,13.00
2019-03-23T14:53:22.747Z,13.00
2019-03-23T14:55:53.157Z,12.90
2019-03-23T14:58:47.681Z,13.00
2019-03-23T15:01:11.002Z,12.80
2019-03-23T15:03:41.823Z,12.80
2019-03-23T15:06:12.313Z,12.60
2019-03-23T15:08:42.840Z,12.70
2019-03-23T15:11:13.415Z,12.50
2019-03-23T15:13:43.845Z,12.60
2019-03-23T15:16:14.722Z,12.60
2019-03-23T15:18:45.669Z,12.50
2019-03-23T15:21:16.204Z,12.40
2019-03-23T15:23:47.228Z,12.20
2019-03-23T15:26:17.916Z,12.20
2019-03-23T15:28:48.623Z,12.10
2019-03-23T15:31:19.268Z,12.10
2019-03-23T15:33:50.127Z,12.10
2019-03-23T15:36:20.319Z,12.10
2019-03-23T15:38:52.662Z,12.20
2019-03-23T15:41:29.095Z,12.20
2019-03-23T15:44:00.484Z,12.20
2019-03-23T15:46:31.467Z,12.20
2019-03-23T15:49:02.367Z,12.20
2019-03-23T15:51:32.891Z,12.20
2019-03-23T15:54:03.616Z,12.20
2019-03-23T15:56:34.845Z,12.10
2019-03-23T15:59:05.595Z,12.00
2019-03-23T16:01:36.067Z,11.90
2019-03-23T16:04:09.201Z,11.90
2019-03-23T16:06:40.046Z,11.80
2019-03-23T16:09:10.720Z,11.90
2019-03-23T16:11:41.411Z,11.70
2019-03-23T16:14:12.557Z,11.70
2019-03-23T16:16:43.291Z,11.80
2019-03-23T16:19:14.145Z,11.90
2019-03-23T16:21:44.531Z,11.90
2019-03-23T16:24:15.392Z,11.90
2019-03-23T16:26:45.792Z,11.90
2019-03-23T16:29:16.281Z,11.90
2019-03-23T16:31:46.834Z,11.80
2019-03-23T16:34:17.482Z,11.80
2019-03-23T16:36:47.975Z,11.70
2019-03-23T16:39:18.581Z,11.70
2019-03-23T16:41:50.755Z,11.70
2019-03-23T16:44:33.739Z,11.60
2019-03-23T16:47:04.315Z,11.60
2019-03-23T16:49:34.684Z,11.50
2019-03-23T16:52:05.257Z,11.40
2019-03-23T16:54:36.184Z,11.40
2019-03-23T16:57:06.751Z,11.50
2019-03-23T16:59:37.472Z,11.30
2019-03-23T17:02:07.980Z,11.20
2019-03-23T17:04:38.840Z,11.20
2019-03-23T17:07:09.382Z,11.20
2019-03-23T17:09:40.704Z,11.10
2019-03-23T17:12:11.272Z,11.10
2019-03-23T17:14:42.045Z,11.00
2019-03-23T17:17:12.595Z,11.00
2019-03-23T17:19:43.555Z,10.90
2019-03-23T17:22:13.975Z,10.90
2019-03-23T17:24:45.119Z,10.60
2019-03-23T17:27:15.758Z,10.60
2019-03-23T17:29:46.700Z,10.50
2019-03-23T17:32:17.494Z,10.50
2019-03-23T17:34:47.861Z,10.60
2019-03-23T17:37:18.398Z,10.60
2019-03-23T17:39:49.315Z,10.60
2019-03-23T17:42:19.758Z,10.60
2019-03-23T17:44:50.190Z,10.60
2019-03-23T17:47:20.708Z,10.70
2019-03-23T17:49:51.293Z,10.60
2019-03-23T17:52:21.723Z,10.50
2019-03-23T17:54:52.693Z,10.50
2019-03-23T17:57:23.280Z,10.40
2019-03-23T17:59:53.692Z,10.40
2019-03-23T18:02:24.369Z,10.40
2019-03-23T18:04:55.368Z,10.30
2019-03-23T18:07:25.859Z,10.30
2019-03-23T18:09:56.909Z,10.30
2019-03-23T18:12:27.238Z,10.20
2019-03-23T18:14:58.316Z,10.20
2019-03-23T18:17:29.025Z,10.10
2019-03-23T18:19:59.651Z,10.10
2019-03-23T18:22:30.099Z,10.10
2019-03-23T18:25:00.643Z,10.10
2019-03-23T18:27:31.341Z,10.10
2019-03-23T18:30:02.376Z,10.10
2019-03-23T18:32:33.140Z,10.10
2019-03-23T18:35:03.410Z,10.20
2019-03-23T18:37:33.674Z,10.10
2019-03-23T18:40:08.134Z,10.20
2019-03-23T18:42:38.013Z,10.20
2019-03-23T18:45:08.648Z,10.20
2019-03-23T18:47:39.455Z,10.10
2019-03-23T18:50:11.132Z,10.00
2019-03-23T18:52:41.974Z,10.00
2019-03-23T18:55:12.916Z,10.00
2019-03-23T18:57:43.248Z,10.00
2019-03-23T19:00:16.131Z,10.00
2019-03-23T19:02:47.007Z,9.90
2019-03-23T19:05:17.419Z,9.90
2019-03-23T19:07:47.768Z,9.90
2019-03-23T19:10:18.544Z,9.80
2019-03-23T19:12:49.204Z,9.80
2019-03-23T19:15:19.713Z,9.70
2019-03-23T19:17:50.074Z,9.70
2019-03-23T19:20:22.116Z,9.70
2019-03-23T19:22:52.543Z,9.60
2019-03-23T19:25:23.351Z,9.50
2019-03-23T19:27:53.751Z,9.50
2019-03-23T19:30:24.629Z,9.50
2019-03-23T19:32:55.363Z,9.50
2019-03-23T19:35:25.635Z,9.40
2019-03-23T19:37:56.143Z,9.40
2019-03-23T19:40:27.044Z,9.40
2019-03-23T19:42:59.580Z,9.40
2019-03-23T19:45:29.550Z,9.30
2019-03-23T19:48:00.907Z,9.40
2019-03-23T19:50:31.532Z,9.40
2019-03-23T19:53:01.956Z,9.30
2019-03-23T19:55:32.477Z,9.30
2019-03-23T19:58:03.239Z,9.20
2019-03-23T20:00:33.773Z,9.10
2019-03-23T20:03:04.433Z,9.00
2019-03-23T20:05:34.734Z,8.90
2019-03-23T20:08:05.080Z,8.80
2019-03-23T20:10:35.920Z,8.80
2019-03-23T20:13:06.766Z,8.60
2019-03-23T20:15:37.223Z,8.50
2019-03-23T20:18:08.273Z,8.50
2019-03-23T20:20:39.003Z,8.60
2019-03-23T20:23:09.447Z,8.60
2019-03-23T20:25:40.009Z,8.50
2019-03-23T20:28:10.440Z,8.50
2019-03-23T20:30:40.821Z,8.50
2019-03-23T20:33:19.358Z,8.50
2019-03-23T20:35:46.015Z,8.40
2019-03-23T20:38:16.904Z,8.50
2019-03-23T20:40:47.932Z,8.50
2019-03-23T20:43:18.285Z,8.50
2019-03-23T20:45:49.288Z,8.50
2019-03-23T20:48:20.162Z,8.40
2019-03-23T20:50:51.106Z,8.30
2019-03-23T20:53:21.728Z,8.30
2019-03-23T20:55:52.155Z,8.30
2019-03-23T20:58:23.355Z,8.20
2019-03-23T21:00:53.648Z,8.10
2019-03-23T21:03:24.100Z,8.10
2019-03-23T21:05:55.106Z,8.00
2019-03-23T21:08:25.439Z,8.00
2019-03-23T21:10:55.847Z,8.00
2019-03-23T21:13:26.583Z,8.00
2019-03-23T21:15:57.442Z,8.10
2019-03-23T21:18:28.105Z,8.10
2019-03-23T21:20:59.125Z,8.10
2019-03-23T21:23:29.955Z,8.10
2019-03-23T21:26:00.288Z,8.10
2019-03-23T21:28:31.203Z,8.20
2019-03-23T21:31:02.151Z,8.10
2019-03-23T21:33:38.698Z,8.10
2019-03-23T21:36:04.954Z,8.10
2019-03-23T21:38:35.670Z,8.00
2019-03-23T21:41:06.615Z,7.90
2019-03-23T21:43:37.266Z,7.80
2019-03-23T21:46:07.779Z,7.90
2019-03-23T21:48:38.816Z,7.90
2019-03-23T21:51:09.179Z,7.80
2019-03-23T21:53:39.763Z,7.80
2019-03-23T21:56:10.240Z,7.80
2019-03-23T21:58:40.635Z,7.80
2019-03-23T22:01:11.222Z,7.60
2019-03-23T22:03:43.066Z,7.60
2019-03-23T22:06:14.328Z,7.70
2019-03-23T22:08:44.824Z,7.70
2019-03-23T22:11:15.632Z,7.60
2019-03-23T22:13:46.699Z,7.60
2019-03-23T22:16:16.959Z,7.70
2019-03-23T22:18:49.834Z,7.70
2019-03-23T22:21:21.167Z,7.60
2019-03-23T22:23:51.818Z,7.50
2019-03-23T22:26:22.080Z,7.40
2019-03-23T22:28:54.148Z,7.40
2019-03-23T22:31:24.707Z,7.50
2019-03-23T22:33:55.416Z,7.60
2019-03-23T22:36:26.133Z,7.60
2019-03-23T22:38:56.625Z,7.40
2019-03-23T22:41:26.927Z,7.30
2019-03-23T22:43:58.050Z,7.30
2019-03-23T22:46:28.507Z,7.20
2019-03-23T22:48:58.978Z,7.00
2019-03-23T22:51:29.823Z,7.00
2019-03-23T22:54:00.143Z,6.80
2019-03-23T22:56:30.707Z,6.80
2019-03-23T22:59:01.505Z,6.90
2019-03-23T23:01:32.168Z,6.90
2019-03-23T23:04:02.450Z,6.80
2019-03-23T23:06:33.335Z,6.70
2019-03-23T23:09:05.130Z,6.70
2019-03-23T23:11:35.759Z,6.60
2019-03-23T23:14:06.866Z,6.60
2019-03-23T23:16:37.414Z,6.50
2019-03-23T23:19:08.465Z,6.60
2019-03-23T23:21:39.018Z,6.60
2019-03-23T23:24:09.663Z,6.60
2019-03-23T23:26:40.271Z,6.60
2019-03-23T23:29:12.739Z,6.60
2019-03-23T23:31:43.073Z,6.60
2019-03-23T23:34:13.595Z,6.60
2019-03-23T23:36:43.970Z,6.60
2019-03-23T23:39:14.210Z,6.50
2019-03-23T23:41:44.804Z,6.50
2019-03-23T23:44:28.603Z,6.50
2019-03-23T23:46:54.714Z,6.50
2019-03-23T23:49:25.560Z,6.40
2019-03-23T23:51:56.005Z,6.40
2019-03-23T23:54:26.532Z,6.50
2019-03-23T23:56:57.635Z,6.40
2019-03-23T23:59:27.954Z,6.40
